createdAt,value
2019-05-30T00:00:34.221Z,99256.47
2019-05-30T00:03:04.368Z,99246.83
2019-05-30T00:05:33.927Z,99255.17
2019-05-30T00:08:04.427Z,99238.91
2019-05-30T00:10:33.828Z,99245.97
2019-05-30T00:13:03.275Z,99249.91
2019-05-30T00:15:32.639Z,99256.09
2019-05-30T00:18:02.921Z,99256.05
2019-05-30T00:20:32.363Z,99256.06
2019-05-30T00:23:01.918Z,99258.26
2019-05-30T00:25:31.299Z,99262.19
2019-05-30T00:28:05.345Z,99260.86
2019-05-30T00:30:35.316Z,99263.98
2019-05-30T00:33:05.212Z,99257.38
2019-05-30T00:35:34.734Z,99260.48
2019-05-30T00:38:04.182Z,99260.88
2019-05-30T00:40:33.661Z,99258.27
2019-05-30T00:43:04.220Z,99251.20
2019-05-30T00:45:33.714Z,99256.94
2019-05-30T00:48:04.271Z,99257.38
2019-05-30T00:50:33.812Z,99257.39
2019-05-30T00:53:03.249Z,99259.61
2019-05-30T00:55:32.644Z,99262.23
2019-05-30T00:58:02.777Z,99260.91
2019-05-30T01:00:42.725Z,99257.86
2019-05-30T01:03:04.930Z,99260.91
2019-05-30T01:05:34.561Z,99265.31
2019-05-30T01:08:05.071Z,99259.59
2019-05-30T01:10:34.804Z,99256.52
2019-05-30T01:13:05.192Z,99258.73
2019-05-30T01:15:34.660Z,99259.61
2019-05-30T01:18:05.294Z,99252.14
2019-05-30T01:20:34.814Z,99254.77
2019-05-30T01:23:05.361Z,99253.92
2019-05-30T01:25:34.786Z,99255.20
2019-05-30T01:28:05.580Z,99247.34
2019-05-30T01:30:35.043Z,99244.67
2019-05-30T01:33:05.766Z,99245.13
2019-05-30T01:35:35.304Z,99241.17
2019-05-30T01:38:06.060Z,99238.54
2019-05-30T01:40:35.573Z,99231.95
2019-05-30T01:43:06.188Z,99236.77
2019-05-30T01:45:35.626Z,99235.47
2019-05-30T01:48:06.342Z,99234.14
2019-05-30T01:50:36.206Z,99236.78
2019-05-30T01:53:06.702Z,99231.95
2019-05-30T01:55:36.186Z,99235.02
2019-05-30T01:58:07.236Z,99232.39
2019-05-30T02:00:39.181Z,99231.08
2019-05-30T02:03:09.800Z,99228.42
2019-05-30T02:05:39.384Z,99230.19
2019-05-30T02:08:10.119Z,99229.28
2019-05-30T02:10:39.786Z,99235.89
2019-05-30T02:13:09.825Z,99230.16
2019-05-30T02:15:39.492Z,99231.03
2019-05-30T02:18:09.967Z,99230.16
2019-05-30T02:20:39.771Z,99231.90
2019-05-30T02:23:11.270Z,99227.09
2019-05-30T02:25:40.280Z,99230.58
2019-05-30T02:28:10.407Z,99230.61
2019-05-30T02:30:39.933Z,99224.00
2019-05-30T02:33:11.367Z,99224.00
2019-05-30T02:35:41.265Z,99229.70
2019-05-30T02:38:11.854Z,99228.41
2019-05-30T02:40:41.561Z,99236.72
2019-05-30T02:43:12.043Z,99237.17
2019-05-30T02:45:41.876Z,99238.92
2019-05-30T02:48:12.220Z,99236.75
2019-05-30T02:50:42.452Z,99239.37
2019-05-30T02:53:13.131Z,99244.22
2019-05-30T02:55:43.106Z,99250.36
2019-05-30T02:58:13.169Z,99247.73
2019-05-30T03:00:43.022Z,99253.03
2019-05-30T03:03:14.479Z,99253.03
2019-05-30T03:05:43.650Z,99261.34
2019-05-30T03:08:14.355Z,99255.20
2019-05-30T03:10:44.381Z,99256.97
2019-05-30T03:13:14.017Z,99261.37
2019-05-30T03:15:43.642Z,99253.03
2019-05-30T03:18:14.983Z,99257.84
2019-05-30T03:20:44.803Z,99256.53
2019-05-30T03:23:14.988Z,99256.98
2019-05-30T03:25:44.686Z,99256.08
2019-05-30T03:28:14.330Z,99256.50
2019-05-30T03:30:46.128Z,99257.40
2019-05-30T03:33:35.993Z,99253.45
2019-05-30T03:35:46.932Z,99260.45
2019-05-30T03:38:16.451Z,99250.34
2019-05-30T03:40:46.343Z,99254.75
2019-05-30T03:43:16.219Z,99253.43
2019-05-30T03:45:46.192Z,99254.73
2019-05-30T03:48:18.334Z,99261.77
2019-05-30T03:50:50.800Z,99266.16
2019-05-30T03:53:22.219Z,99258.73
2019-05-30T03:55:54.674Z,99257.83
2019-05-30T03:58:45.271Z,99259.61
2019-05-30T04:01:18.679Z,99264.44
2019-05-30T04:04:00.546Z,99260.49
2019-05-30T04:06:33.014Z,99271.02
2019-05-30T04:09:07.826Z,99267.51
2019-05-30T04:11:56.186Z,99269.27
2019-05-30T04:14:28.374Z,99265.75
2019-05-30T04:16:57.783Z,99266.21
2019-05-30T04:19:27.182Z,99267.95
2019-05-30T04:21:56.599Z,99270.60
2019-05-30T04:24:25.982Z,99278.05
2019-05-30T04:26:55.446Z,99280.27
2019-05-30T04:29:24.991Z,99289.92
2019-05-30T04:31:54.414Z,99285.06
2019-05-30T04:34:23.804Z,99282.42
2019-05-30T04:36:53.865Z,99292.52
2019-05-30T04:39:23.815Z,99300.42
2019-05-30T04:41:53.223Z,99285.02
2019-05-30T04:44:22.685Z,99289.89
2019-05-30T04:46:52.098Z,99288.52
2019-05-30T04:49:21.780Z,99297.30
2019-05-30T04:51:51.299Z,99292.02
2019-05-30T04:54:21.440Z,99294.17
2019-05-30T04:56:50.997Z,99298.93
2019-05-30T04:59:21.924Z,99305.05
2019-05-30T05:01:51.802Z,99308.94
2019-05-30T05:04:21.786Z,99302.30
2019-05-30T05:06:51.411Z,99311.91
2019-05-30T05:09:22.386Z,99313.20
2019-05-30T05:11:51.964Z,99306.03
2019-05-30T05:14:22.743Z,99306.83
2019-05-30T05:16:52.242Z,99309.73
2019-05-30T05:19:23.095Z,99310.48
2019-05-30T05:21:52.847Z,99311.12
2019-05-30T05:24:23.528Z,99310.05
2019-05-30T05:26:53.055Z,99315.27
2019-05-30T05:29:22.472Z,99310.77
2019-05-30T05:31:52.084Z,99314.98
2019-05-30T05:34:22.706Z,99310.02
2019-05-30T05:36:52.236Z,99307.72
2019-05-30T05:39:22.206Z,99309.78
2019-05-30T05:41:51.728Z,99308.23
2019-05-30T05:44:22.369Z,99317.05
2019-05-30T05:46:51.934Z,99315.86
2019-05-30T05:49:22.536Z,99320.72
2019-05-30T05:51:52.150Z,99327.52
2019-05-30T05:54:22.880Z,99327.25
2019-05-30T05:56:52.451Z,99333.88
2019-05-30T05:59:22.804Z,99335.27
2019-05-30T06:01:52.455Z,99335.18
2019-05-30T06:04:21.847Z,99335.64
2019-05-30T06:06:51.260Z,99322.09
2019-05-30T06:09:20.710Z,99333.66
2019-05-30T06:11:50.066Z,99331.42
2019-05-30T06:14:19.862Z,99335.11
2019-05-30T06:16:49.360Z,99333.16
2019-05-30T06:19:19.095Z,99336.66
2019-05-30T06:21:54.069Z,99333.48
2019-05-30T06:24:19.929Z,99344.49
2019-05-30T06:26:49.352Z,99339.86
2019-05-30T06:29:20.008Z,99341.27
2019-05-30T06:31:49.640Z,99345.02
2019-05-30T06:34:30.343Z,99345.39
2019-05-30T06:36:50.155Z,99354.48
2019-05-30T06:39:19.563Z,99351.00
2019-05-30T06:41:48.976Z,99344.13
2019-05-30T06:44:19.789Z,99341.09
2019-05-30T06:46:49.279Z,99346.50
2019-05-30T06:49:18.682Z,99345.34
2019-05-30T06:51:48.109Z,99350.96
2019-05-30T06:54:17.508Z,99352.72
2019-05-30T06:56:46.925Z,99351.94
2019-05-30T06:59:16.331Z,99356.59
2019-05-30T07:01:45.752Z,99359.23
2019-05-30T07:04:15.709Z,99361.77
2019-05-30T07:06:45.675Z,99361.09
2019-05-30T07:09:15.338Z,99364.66
2019-05-30T07:11:44.757Z,99369.89
2019-05-30T07:14:14.235Z,99367.83
2019-05-30T07:16:43.677Z,99379.22
2019-05-30T07:19:13.085Z,99380.59
2019-05-30T07:21:42.477Z,99381.11
2019-05-30T07:24:11.909Z,99390.09
2019-05-30T07:26:41.301Z,99390.16
2019-05-30T07:29:10.796Z,99388.08
2019-05-30T07:31:40.278Z,99390.58
2019-05-30T07:34:09.718Z,99386.01
2019-05-30T07:36:39.112Z,99392.56
2019-05-30T07:39:09.259Z,99397.61
2019-05-30T07:41:39.129Z,99392.13
2019-05-30T07:44:08.633Z,99401.42
2019-05-30T07:46:38.013Z,99402.41
2019-05-30T07:49:07.430Z,99400.29
2019-05-30T07:51:36.940Z,99407.77
2019-05-30T07:54:06.540Z,99407.31
2019-05-30T07:56:37.874Z,99408.73
2019-05-30T07:59:07.152Z,99411.58
2019-05-30T08:01:36.565Z,99407.55
2019-05-30T08:04:06.115Z,99412.11
2019-05-30T08:06:35.794Z,99404.41
2019-05-30T08:09:07.059Z,99417.39
2019-05-30T08:11:36.465Z,99411.26
2019-05-30T08:14:05.958Z,99409.78
2019-05-30T08:16:35.544Z,99413.36
2019-05-30T08:19:05.120Z,99410.39
2019-05-30T08:21:34.524Z,99407.64
2019-05-30T08:24:04.000Z,99404.80
2019-05-30T08:26:34.325Z,99408.80
2019-05-30T08:29:03.855Z,99405.91
2019-05-30T08:31:34.512Z,99404.63
2019-05-30T08:34:04.220Z,99404.41
2019-05-30T08:36:33.620Z,99407.61
2019-05-30T08:39:03.048Z,99405.89
2019-05-30T08:41:33.208Z,99402.41
2019-05-30T08:44:02.696Z,99404.56
2019-05-30T08:46:32.345Z,99399.75
2019-05-30T08:49:02.005Z,99401.50
2019-05-30T08:51:32.146Z,99400.30
2019-05-30T08:54:01.633Z,99404.75
2019-05-30T08:56:32.705Z,99402.08
2019-05-30T08:59:02.152Z,99403.72
2019-05-30T09:01:31.606Z,99408.14
2019-05-30T09:04:01.093Z,99408.33
2019-05-30T09:06:30.497Z,99416.84
2019-05-30T09:08:59.915Z,99407.73
2019-05-30T09:11:29.314Z,99410.03
2019-05-30T09:13:58.782Z,99406.70
2019-05-30T09:16:28.283Z,99405.44
2019-05-30T09:18:57.705Z,99401.72
2019-05-30T09:21:27.093Z,99404.53
2019-05-30T09:24:00.412Z,99397.25
2019-05-30T09:26:27.617Z,99397.90
2019-05-30T09:28:57.027Z,99399.37
2019-05-30T09:31:31.041Z,99406.80
2019-05-30T09:34:00.475Z,99407.97
2019-05-30T09:36:29.865Z,99402.61
2019-05-30T09:38:59.562Z,99403.49
2019-05-30T09:41:28.955Z,99402.19
2019-05-30T09:43:58.400Z,99404.70
2019-05-30T09:46:27.794Z,99400.16
2019-05-30T09:48:57.407Z,99407.23
2019-05-30T09:51:26.794Z,99401.61
2019-05-30T09:53:56.257Z,99399.04
2019-05-30T09:56:25.662Z,99404.53
2019-05-30T09:58:55.085Z,99399.91
2019-05-30T10:01:24.567Z,99395.78
2019-05-30T10:03:54.006Z,99397.95
2019-05-30T10:06:29.365Z,99391.81
2019-05-30T10:08:54.779Z,99389.63
2019-05-30T10:11:24.191Z,99393.56
2019-05-30T10:13:53.646Z,99392.68
2019-05-30T10:16:23.078Z,99390.64
2019-05-30T10:18:52.913Z,99393.05
2019-05-30T10:21:22.356Z,99391.58
2019-05-30T10:23:52.520Z,99384.59
2019-05-30T10:26:23.027Z,99387.38
2019-05-30T10:28:53.360Z,99381.11
2019-05-30T10:31:22.837Z,99387.45
2019-05-30T10:33:53.018Z,99382.98
2019-05-30T10:36:22.806Z,99384.16
2019-05-30T10:38:52.339Z,99380.94
2019-05-30T10:41:21.813Z,99377.06
2019-05-30T10:43:51.290Z,99376.56
2019-05-30T10:46:20.722Z,99380.05
2019-05-30T10:48:50.971Z,99382.67
2019-05-30T10:51:20.547Z,99386.27
2019-05-30T10:53:50.850Z,99393.66
2019-05-30T10:56:21.150Z,99392.36
2019-05-30T10:58:50.794Z,99392.80
2019-05-30T11:01:20.322Z,99392.32
2019-05-30T11:03:50.411Z,99386.53
2019-05-30T11:06:23.169Z,99388.08
2019-05-30T11:08:54.802Z,99389.94
2019-05-30T11:11:24.253Z,99385.77
2019-05-30T11:13:53.655Z,99383.91
2019-05-30T11:16:23.079Z,99384.71
2019-05-30T11:18:53.182Z,99397.98
2019-05-30T11:21:23.775Z,99392.55
2019-05-30T11:23:54.353Z,99390.31
2019-05-30T11:26:23.882Z,99395.17
2019-05-30T11:28:53.321Z,99395.22
2019-05-30T11:31:22.738Z,99396.55
2019-05-30T11:33:52.864Z,99402.27
2019-05-30T11:36:22.363Z,99396.85
2019-05-30T11:38:52.468Z,99392.86
2019-05-30T11:41:23.129Z,99395.53
2019-05-30T11:43:53.547Z,99398.69
2019-05-30T11:46:23.773Z,99397.23
2019-05-30T11:48:53.667Z,99393.81
2019-05-30T11:51:23.101Z,99394.39
2019-05-30T11:53:52.473Z,99398.19
2019-05-30T11:56:21.897Z,99394.03
2019-05-30T11:58:51.957Z,99393.46
2019-05-30T12:01:21.513Z,99394.33
2019-05-30T12:03:52.422Z,99397.77
2019-05-30T12:06:22.066Z,99401.28
2019-05-30T12:08:52.715Z,99397.06
2019-05-30T12:11:22.239Z,99392.17
2019-05-30T12:13:52.182Z,99395.68
2019-05-30T12:16:22.787Z,99397.50
2019-05-30T12:18:53.846Z,99395.27
2019-05-30T12:21:23.475Z,99399.31
2019-05-30T12:23:54.417Z,99398.97
2019-05-30T12:26:23.973Z,99402.16
2019-05-30T12:28:54.135Z,99397.35
2019-05-30T12:31:23.649Z,99396.06
2019-05-30T12:33:54.111Z,99394.19
2019-05-30T12:36:23.660Z,99385.47
2019-05-30T12:38:54.222Z,99386.71
2019-05-30T12:41:23.769Z,99383.95
2019-05-30T12:43:53.152Z,99378.86
2019-05-30T12:46:22.728Z,99374.77
2019-05-30T12:48:53.279Z,99375.87
2019-05-30T12:51:22.764Z,99386.86
2019-05-30T12:53:52.182Z,99379.09
2019-05-30T12:56:21.593Z,99378.69
2019-05-30T12:58:50.986Z,99381.67
2019-05-30T13:01:20.480Z,99381.14
2019-05-30T13:03:49.898Z,99386.00
2019-05-30T13:06:19.324Z,99393.00
2019-05-30T13:08:48.726Z,99394.02
2019-05-30T13:11:18.140Z,99392.42
2019-05-30T13:13:47.567Z,99385.83
2019-05-30T13:16:16.999Z,99385.36
2019-05-30T13:18:46.432Z,99383.14
2019-05-30T13:21:15.858Z,99385.16
2019-05-30T13:23:45.335Z,99381.25
2019-05-30T13:26:14.757Z,99394.25
2019-05-30T13:28:44.162Z,99385.09
2019-05-30T13:31:13.568Z,99381.78
2019-05-30T13:33:42.986Z,99377.59
2019-05-30T13:36:12.413Z,99386.88
2019-05-30T13:38:41.815Z,99394.00
2019-05-30T13:41:11.229Z,99391.14
2019-05-30T13:43:40.697Z,99393.64
2019-05-30T13:46:10.103Z,99398.46
2019-05-30T13:48:39.618Z,99396.45
2019-05-30T13:51:09.195Z,99398.09
2019-05-30T13:53:39.076Z,99396.45
2019-05-30T13:56:09.685Z,99398.31
2019-05-30T13:58:39.251Z,99393.77
2019-05-30T14:01:12.353Z,99386.70
2019-05-30T14:03:39.945Z,99386.90
2019-05-30T14:06:11.311Z,99385.62
2019-05-30T14:08:41.865Z,99384.41
2019-05-30T14:11:11.522Z,99387.28
2019-05-30T14:13:40.938Z,99387.56
2019-05-30T14:16:11.105Z,99392.50
2019-05-30T14:18:40.595Z,99391.11
2019-05-30T14:21:11.457Z,99396.81
2019-05-30T14:23:40.923Z,99391.83
2019-05-30T14:26:11.473Z,99389.41
2019-05-30T14:28:40.997Z,99393.23
2019-05-30T14:31:11.918Z,99397.92
2019-05-30T14:33:41.513Z,99389.82
2019-05-30T14:36:13.345Z,99393.81
2019-05-30T14:38:57.187Z,99397.03
2019-05-30T14:41:13.535Z,99391.13
2019-05-30T14:43:42.955Z,99394.72
2019-05-30T14:46:12.493Z,99394.08
2019-05-30T14:48:41.839Z,99396.27
2019-05-30T14:51:11.257Z,99396.06
2019-05-30T14:53:40.779Z,99397.95
2019-05-30T14:56:11.177Z,99406.88
2019-05-30T14:58:40.653Z,99403.97
2019-05-30T15:01:11.201Z,99398.31
2019-05-30T15:03:40.597Z,99403.91
2019-05-30T15:06:12.918Z,99400.33
2019-05-30T15:08:41.286Z,99398.32
2019-05-30T15:11:11.705Z,99395.99
2019-05-30T15:13:41.274Z,99386.38
2019-05-30T15:16:10.919Z,99398.78
2019-05-30T15:18:40.444Z,99396.56
2019-05-30T15:21:10.347Z,99397.03
2019-05-30T15:23:39.859Z,99389.03
2019-05-30T15:26:09.983Z,99390.17
2019-05-30T15:28:39.456Z,99388.92
2019-05-30T15:31:08.857Z,99387.02
2019-05-30T15:33:40.420Z,99386.08
2019-05-30T15:36:10.722Z,99394.02
2019-05-30T15:38:40.080Z,99392.33
2019-05-30T15:41:09.535Z,99388.42
2019-05-30T15:43:38.955Z,99395.04
2019-05-30T15:46:09.728Z,99395.95
2019-05-30T15:48:39.141Z,99391.34
2019-05-30T15:51:08.572Z,99384.42
2019-05-30T15:53:37.994Z,99386.31
2019-05-30T15:56:07.398Z,99393.98
2019-05-30T15:58:36.797Z,99385.79
2019-05-30T16:01:06.283Z,99384.50
2019-05-30T16:03:35.898Z,99384.91
2019-05-30T16:06:05.436Z,99379.48
2019-05-30T16:08:34.841Z,99377.44
2019-05-30T16:11:04.407Z,99381.82
2019-05-30T16:13:33.812Z,99377.09
2019-05-30T16:16:03.208Z,99373.03
2019-05-30T16:18:32.628Z,99377.79
2019-05-30T16:21:02.016Z,99375.29
2019-05-30T16:23:32.294Z,99375.72
2019-05-30T16:26:01.705Z,99379.67
2019-05-30T16:28:31.128Z,99381.84
2019-05-30T16:31:00.553Z,99380.55
2019-05-30T16:33:30.075Z,99383.66
2019-05-30T16:35:59.557Z,99384.95
2019-05-30T16:38:28.979Z,99386.66
2019-05-30T16:41:02.056Z,99380.88
2019-05-30T16:43:41.782Z,99384.30
2019-05-30T16:46:20.493Z,99385.61
2019-05-30T16:48:46.105Z,99382.94
2019-05-30T16:51:17.167Z,99377.63
2019-05-30T16:53:46.573Z,99384.37
2019-05-30T16:56:17.307Z,99375.64
2019-05-30T16:58:46.836Z,99374.36
2019-05-30T17:01:16.235Z,99374.33
2019-05-30T17:03:45.661Z,99376.38
2019-05-30T17:06:15.889Z,99373.41
2019-05-30T17:08:45.389Z,99370.12
2019-05-30T17:11:15.304Z,99369.91
2019-05-30T17:13:44.997Z,99370.08
2019-05-30T17:16:15.871Z,99367.23
2019-05-30T17:18:45.275Z,99364.77
2019-05-30T17:21:14.673Z,99370.24
2019-05-30T17:23:44.118Z,99373.16
2019-05-30T17:26:13.514Z,99373.55
2019-05-30T17:28:42.924Z,99372.58
2019-05-30T17:31:12.339Z,99368.86
2019-05-30T17:33:41.754Z,99372.28
2019-05-30T17:36:11.234Z,99374.66
2019-05-30T17:38:40.644Z,99371.87
2019-05-30T17:41:10.133Z,99370.95
2019-05-30T17:43:39.560Z,99370.90
2019-05-30T17:46:08.968Z,99369.19
2019-05-30T17:48:38.393Z,99380.89
2019-05-30T17:51:07.804Z,99378.38
2019-05-30T17:53:37.464Z,99381.43
2019-05-30T17:56:06.939Z,99388.86
2019-05-30T17:58:36.350Z,99377.63
2019-05-30T18:01:05.758Z,99384.37
2019-05-30T18:03:35.168Z,99385.01
2019-05-30T18:06:04.759Z,99388.20
2019-05-30T18:08:34.178Z,99387.09
2019-05-30T18:11:03.663Z,99391.27
2019-05-30T18:13:33.242Z,99394.05
2019-05-30T18:16:02.638Z,99389.70
2019-05-30T18:18:32.112Z,99391.03
2019-05-30T18:21:01.518Z,99386.34
2019-05-30T18:23:31.763Z,99387.86
2019-05-30T18:26:01.204Z,99390.45
2019-05-30T18:28:30.622Z,99387.86
2019-05-30T18:31:00.106Z,99387.56
2019-05-30T18:33:30.286Z,99386.72
2019-05-30T18:35:59.828Z,99390.13
2019-05-30T18:38:30.394Z,99379.84
2019-05-30T18:41:11.086Z,99378.63
2019-05-30T18:43:31.081Z,99377.89
2019-05-30T18:46:00.867Z,99385.98
2019-05-30T18:48:31.468Z,99389.13
2019-05-30T18:51:01.061Z,99390.20
2019-05-30T18:53:30.484Z,99392.15
2019-05-30T18:55:59.948Z,99390.04
2019-05-30T18:58:29.354Z,99394.66
2019-05-30T19:00:58.768Z,99396.20
2019-05-30T19:03:28.552Z,99401.02
2019-05-30T19:05:58.028Z,99398.30
2019-05-30T19:08:27.860Z,99399.84
2019-05-30T19:10:57.443Z,99397.56
2019-05-30T19:13:26.911Z,99396.11
2019-05-30T19:15:56.272Z,99400.72
2019-05-30T19:18:25.683Z,99403.06
2019-05-30T19:20:55.097Z,99408.19
2019-05-30T19:23:25.896Z,99408.41
2019-05-30T19:25:55.460Z,99408.25
2019-05-30T19:28:24.850Z,99412.25
2019-05-30T19:30:54.271Z,99409.52
2019-05-30T19:33:23.669Z,99418.35
2019-05-30T19:35:53.082Z,99426.20
2019-05-30T19:38:22.480Z,99425.05
2019-05-30T19:40:51.898Z,99431.09
2019-05-30T19:43:21.363Z,99428.52
2019-05-30T19:45:50.902Z,99429.16
2019-05-30T19:48:20.305Z,99432.54
2019-05-30T19:50:49.716Z,99427.02
2019-05-30T19:53:19.103Z,99434.31
2019-05-30T19:55:48.520Z,99430.95
2019-05-30T19:58:17.911Z,99443.83
2019-05-30T20:00:57.776Z,99446.19
2019-05-30T20:03:18.441Z,99449.08
2019-05-30T20:05:48.234Z,99452.89
2019-05-30T20:08:17.642Z,99447.64
2019-05-30T20:10:47.065Z,99457.48
2019-05-30T20:13:16.470Z,99450.11
2019-05-30T20:15:45.905Z,99462.52
2019-05-30T20:18:15.312Z,99462.14
2019-05-30T20:20:56.763Z,99463.09
2019-05-30T20:23:15.845Z,99470.30
2019-05-30T20:25:46.114Z,99473.17
2019-05-30T20:28:15.660Z,99475.49
2019-05-30T20:30:45.066Z,99476.06
2019-05-30T20:33:14.462Z,99475.70
2019-05-30T20:35:44.656Z,99481.02
2019-05-30T20:38:14.138Z,99481.02
2019-05-30T20:40:43.581Z,99480.52
2019-05-30T20:43:13.066Z,99477.48
2019-05-30T20:45:47.190Z,99475.78
2019-05-30T20:48:13.911Z,99478.42
2019-05-30T20:50:43.333Z,99477.04
2019-05-30T20:53:12.829Z,99481.96
2019-05-30T20:55:42.593Z,99483.17
2019-05-30T20:58:12.055Z,99487.98
2019-05-30T21:00:42.188Z,99485.32
2019-05-30T21:03:11.811Z,99484.35
2019-05-30T21:05:44.126Z,99484.27
2019-05-30T21:08:13.679Z,99481.47
2019-05-30T21:10:45.093Z,99472.93
2019-05-30T21:13:15.626Z,99480.79
2019-05-30T21:15:46.661Z,99478.34
2019-05-30T21:18:18.243Z,99487.09
2019-05-30T21:20:47.812Z,99485.08
2019-05-30T21:23:17.213Z,99483.25
2019-05-30T21:25:47.208Z,99487.57
2019-05-30T21:28:16.829Z,99486.65
2019-05-30T21:30:47.387Z,99492.37
2019-05-30T21:33:17.197Z,99492.34
2019-05-30T21:35:48.106Z,99491.82
2019-05-30T21:38:17.696Z,99494.58
2019-05-30T21:40:48.386Z,99494.05
2019-05-30T21:43:18.104Z,99493.98
2019-05-30T21:45:48.855Z,99490.04
2019-05-30T21:48:18.381Z,99489.94
2019-05-30T21:50:49.118Z,99486.61
2019-05-30T21:53:18.893Z,99489.51
2019-05-30T21:55:48.312Z,99485.61
2019-05-30T21:58:17.719Z,99489.18
2019-05-30T22:00:50.993Z,99488.00
2019-05-30T22:03:20.498Z,99495.37
2019-05-30T22:05:51.965Z,99490.06
2019-05-30T22:08:21.000Z,99489.25
2019-05-30T22:10:51.621Z,99488.73
2019-05-30T22:13:21.231Z,99482.50
2019-05-30T22:15:52.064Z,99481.97
2019-05-30T22:18:21.580Z,99476.02
2019-05-30T22:20:52.118Z,99482.25
2019-05-30T22:23:21.574Z,99477.78
2019-05-30T22:25:51.031Z,99476.45
2019-05-30T22:28:20.423Z,99477.86
2019-05-30T22:30:50.624Z,99480.66
2019-05-30T22:33:20.462Z,99473.94
2019-05-30T22:35:50.996Z,99473.19
2019-05-30T22:38:20.473Z,99466.27
2019-05-30T22:40:50.052Z,99473.66
2019-05-30T22:43:25.198Z,99467.13
2019-05-30T22:45:50.573Z,99472.59
2019-05-30T22:48:19.977Z,99474.73
2019-05-30T22:50:49.394Z,99473.27
2019-05-30T22:53:18.782Z,99473.27
2019-05-30T22:55:49.143Z,99473.27
2019-05-30T22:58:18.688Z,99470.52
2019-05-30T23:00:48.079Z,99475.68
2019-05-30T23:03:17.472Z,99476.66
2019-05-30T23:05:47.268Z,99475.27
2019-05-30T23:08:16.677Z,99478.81
2019-05-30T23:10:46.084Z,99475.70
2019-05-30T23:13:15.488Z,99475.48
2019-05-30T23:15:46.066Z,99477.30
2019-05-30T23:18:15.536Z,99474.63
2019-05-30T23:20:44.948Z,99470.27
2019-05-30T23:23:14.349Z,99470.79
2019-05-30T23:25:43.768Z,99471.84
2019-05-30T23:28:13.168Z,99468.58
2019-05-30T23:30:42.597Z,99470.86
2019-05-30T23:33:11.994Z,99471.31
2019-05-30T23:35:41.429Z,99467.32
2019-05-30T23:38:10.825Z,99464.66
2019-05-30T23:40:40.252Z,99469.51
2019-05-30T23:43:09.662Z,99464.20
2019-05-30T23:45:39.066Z,99464.75
2019-05-30T23:48:08.473Z,99476.73
2019-05-30T23:50:37.867Z,99463.70
2019-05-30T23:53:07.285Z,99466.22
2019-05-30T23:55:36.765Z,99465.39
2019-05-30T23:58:06.193Z,99457.52
